Time;durP1;ratioP1;P1;durP2;ratioP2;P2;SDS_P1;SDS_P2;PMS_P1;PMS_P2;Temp;Humidity;BMP_temperature;BMP_pressure;BME280_temperature;BME280_humidity;BME280_pressure;Samples;Min_cycle;Max_cycle;Signal;HPM_P1;HPM_P2
2022/06/29 00:02:05;;;;;;;7.35;5.15;;;15.40;99.90;;;;;;4957161;28;20112;-86
2022/06/29 00:04:31;;;;;;;8.43;4.90;;;15.30;99.90;;;;;;4937507;28;20042;-86
2022/06/29 00:06:59;;;;;;;6.18;4.60;;;15.30;99.90;;;;;;4959226;28;20038;-86
2022/06/29 00:09:25;;;;;;;7.20;4.47;;;15.20;99.90;;;;;;4941698;28;20039;-86
2022/06/29 00:11:52;;;;;;;5.00;4.50;;;15.20;99.90;;;;;;4942845;28;20102;-85
2022/06/29 00:14:18;;;;;;;6.65;4.93;;;15.10;99.90;;;;;;4941162;28;20379;-86
2022/06/29 00:16:43;;;;;;;7.18;4.95;;;15.10;99.90;;;;;;4952725;28;20058;-86
2022/06/29 00:19:09;;;;;;;5.70;4.40;;;15.00;99.90;;;;;;4936047;28;20494;-86
2022/06/29 00:21:35;;;;;;;6.47;4.97;;;15.00;99.90;;;;;;4942950;28;20046;-86
2022/06/29 00:24:06;;;;;;;8.60;5.22;;;14.90;99.90;;;;;;4941392;28;20353;-86
2022/06/29 00:26:32;;;;;;;8.10;5.15;;;14.90;99.90;;;;;;4942911;28;20557;-86
2022/06/29 00:28:57;;;;;;;6.25;4.97;;;14.90;99.90;;;;;;4941920;28;20085;-85
2022/06/29 00:31:23;;;;;;;7.90;5.38;;;14.80;99.90;;;;;;4955828;28;20438;-85
2022/06/29 00:33:49;;;;;;;7.00;5.05;;;14.80;99.90;;;;;;4942426;28;20038;-86
2022/06/29 00:36:15;;;;;;;6.65;5.13;;;14.80;99.90;;;;;;4939480;28;20114;-85
2022/06/29 00:38:40;;;;;;;8.13;5.25;;;14.70;99.90;;;;;;4940998;28;20127;-85
2022/06/29 00:41:06;;;;;;;7.18;5.45;;;14.60;99.90;;;;;;4941202;28;20661;-85
2022/06/29 00:43:42;;;;;;;8.18;5.40;;;14.60;99.90;;;;;;4942892;28;20039;-85
2022/06/29 00:46:10;;;;;;;7.22;5.55;;;14.60;99.90;;;;;;4939780;28;20039;-86
2022/06/29 00:48:36;;;;;;;8.43;5.78;;;14.60;99.90;;;;;;4939481;28;20514;-86
2022/06/29 00:51:03;;;;;;;6.80;6.10;;;14.50;99.90;;;;;;4958003;28;20074;-85
2022/06/29 00:53:36;;;;;;;8.18;5.70;;;14.50;99.90;;;;;;4938518;28;20042;-85
2022/06/29 00:56:07;;;;;;;8.32;5.28;;;14.50;99.90;;;;;;4960797;28;20094;-85
2022/06/29 00:58:34;;;;;;;6.10;5.50;;;14.50;99.90;;;;;;4956218;28;20047;-86
2022/06/29 01:01:03;;;;;;;8.20;5.95;;;14.40;99.90;;;;;;4942814;28;20042;-85
2022/06/29 01:03:32;;;;;;;6.43;5.43;;;14.40;99.90;;;;;;4957038;28;20129;-85
2022/06/29 01:06:00;;;;;;;8.15;6.38;;;14.30;99.90;;;;;;4958790;28;20054;-85
2022/06/29 01:08:26;;;;;;;8.73;6.32;;;14.40;99.90;;;;;;4941357;28;20049;-85
2022/06/29 01:10:54;;;;;;;13.38;7.57;;;14.40;99.90;;;;;;4956795;28;20043;-86
2022/06/29 01:13:23;;;;;;;9.98;6.68;;;14.40;99.90;;;;;;4942159;28;20456;-86
2022/06/29 01:15:49;;;;;;;7.57;6.43;;;14.40;99.90;;;;;;4941112;28;20220;-85
2022/06/29 01:18:15;;;;;;;8.85;5.72;;;14.40;99.90;;;;;;4940536;28;20221;-86
2022/06/29 01:20:41;;;;;;;8.65;7.38;;;14.40;99.90;;;;;;4941914;28;20042;-85
2022/06/29 01:23:07;;;;;;;8.05;6.40;;;14.40;99.90;;;;;;4941880;28;20305;-86
2022/06/29 01:25:32;;;;;;;7.82;6.82;;;14.40;99.90;;;;;;4941324;28;20653;-85
2022/06/29 01:27:58;;;;;;;8.88;7.38;;;14.40;99.90;;;;;;4954749;28;20072;-85
2022/06/29 01:30:24;;;;;;;8.80;7.78;;;14.40;1.00;;;;;;4940932;28;20050;-85
2022/06/29 01:32:50;;;;;;;9.48;7.60;;;14.40;1.00;;;;;;4935382;28;20074;-85
2022/06/29 01:35:22;;;;;;;9.23;7.57;;;14.50;1.00;;;;;;4941688;28;20497;-85
2022/06/29 01:37:48;;;;;;;9.52;7.60;;;14.60;99.90;;;;;;4940498;28;20403;-85
2022/06/29 01:40:14;;;;;;;10.70;8.35;;;14.60;1.00;;;;;;4957074;28;20074;-85
2022/06/29 01:42:40;;;;;;;9.90;8.05;;;14.70;1.00;;;;;;4938125;28;20340;-85
2022/06/29 01:45:07;;;;;;;11.48;8.45;;;14.70;99.90;;;;;;4939156;28;20288;-86
2022/06/29 01:47:32;;;;;;;9.73;7.75;;;14.80;1.00;;;;;;4939898;28;20043;-85
2022/06/29 01:49:58;;;;;;;10.82;8.00;;;14.80;99.90;;;;;;4936969;28;20043;-85
2022/06/29 01:52:24;;;;;;;12.52;9.35;;;14.90;1.00;;;;;;4953292;28;20085;-86
2022/06/29 01:54:49;;;;;;;8.80;7.53;;;14.90;1.00;;;;;;4952625;28;20059;-85
2022/06/29 01:57:15;;;;;;;11.68;8.50;;;14.90;99.90;;;;;;4944972;28;20495;-85
2022/06/29 01:59:41;;;;;;;12.25;8.85;;;14.90;1.00;;;;;;4958714;28;20122;-85
2022/06/29 02:02:07;;;;;;;9.80;7.95;;;15.00;99.90;;;;;;4956618;28;20046;-85
2022/06/29 02:04:36;;;;;;;9.93;7.97;;;15.10;1.00;;;;;;4940685;28;20047;-85
2022/06/29 02:07:02;;;;;;;12.95;8.45;;;15.10;99.90;;;;;;4943319;28;20027;-85
2022/06/29 02:09:28;;;;;;;13.32;8.65;;;15.10;99.90;;;;;;4956126;28;20070;-85
2022/06/29 02:11:54;;;;;;;10.80;8.32;;;15.20;99.90;;;;;;4958372;28;20106;-85
2022/06/29 02:14:22;;;;;;;9.18;8.15;;;15.10;1.00;;;;;;4944057;28;20567;-85
2022/06/29 02:16:47;;;;;;;9.20;7.88;;;15.10;99.90;;;;;;4959782;28;20054;-85
2022/06/29 02:19:13;;;;;;;11.27;8.63;;;15.10;99.90;;;;;;4942331;28;20113;-85
2022/06/29 02:21:39;;;;;;;11.45;8.02;;;15.20;99.90;;;;;;4944524;28;20065;-85
2022/06/29 02:24:05;;;;;;;10.35;7.90;;;15.10;99.90;;;;;;4945299;28;20039;-85
2022/06/29 02:26:31;;;;;;;8.95;7.90;;;15.20;99.90;;;;;;4958004;28;20049;-85
2022/06/29 02:28:57;;;;;;;9.80;7.63;;;15.20;99.90;;;;;;4943610;28;20057;-85
2022/06/29 02:37:08;;;;;;;9.82;7.72;;;15.20;99.90;;;;;;4899592;29;20083;-85
2022/06/29 02:39:34;;;;;;;7.75;6.95;;;15.20;99.90;;;;;;4928884;28;20596;-85
2022/06/29 02:41:59;;;;;;;9.23;7.10;;;15.20;99.90;;;;;;4974454;28;20431;-85
2022/06/29 02:44:25;;;;;;;12.25;7.65;;;15.30;99.90;;;;;;4940194;28;20034;-85
2022/06/29 02:46:51;;;;;;;7.53;6.82;;;15.20;99.90;;;;;;4943263;28;20482;-85
2022/06/29 02:49:17;;;;;;;8.98;7.45;;;15.20;99.90;;;;;;4959946;28;20078;-85
2022/06/29 02:51:44;;;;;;;9.10;8.13;;;15.30;99.90;;;;;;4960063;28;20042;-85
2022/06/29 02:54:10;;;;;;;7.90;7.10;;;15.20;99.90;;;;;;4959049;28;20417;-85
2022/06/29 02:56:36;;;;;;;10.68;7.50;;;15.30;99.90;;;;;;4943235;28;20045;-85
2022/06/29 02:59:01;;;;;;;8.07;7.28;;;15.20;99.90;;;;;;4956545;28;20039;-85
2022/06/29 03:01:27;;;;;;;8.95;6.88;;;15.20;99.90;;;;;;4943632;28;20104;-86
2022/06/29 03:03:53;;;;;;;8.30;7.20;;;15.30;99.90;;;;;;4944319;28;20131;-85
2022/06/29 03:06:19;;;;;;;8.52;6.75;;;15.30;99.90;;;;;;4959659;28;20394;-85
2022/06/29 03:08:44;;;;;;;9.27;7.63;;;15.20;99.90;;;;;;4943827;28;20038;-85
2022/06/29 03:11:11;;;;;;;9.27;7.47;;;15.20;99.90;;;;;;4934363;28;20043;-85
2022/06/29 03:13:36;;;;;;;8.85;7.10;;;15.20;99.90;;;;;;4943664;28;20075;-85
2022/06/29 03:16:03;;;;;;;8.50;7.60;;;15.20;99.90;;;;;;4943937;28;20049;-85
2022/06/29 03:18:29;;;;;;;7.80;7.05;;;15.20;99.90;;;;;;4943574;28;20451;-86
2022/06/29 03:20:55;;;;;;;8.52;7.13;;;15.20;99.90;;;;;;4959874;28;20081;-85
2022/06/29 03:23:20;;;;;;;7.65;6.80;;;15.20;99.90;;;;;;4942829;28;20480;-85
2022/06/29 03:25:46;;;;;;;9.15;7.38;;;15.10;99.90;;;;;;4942158;28;20092;-85
2022/06/29 03:28:12;;;;;;;9.23;6.55;;;15.10;99.90;;;;;;4942401;28;20054;-86
2022/06/29 03:30:37;;;;;;;9.68;7.65;;;15.10;99.90;;;;;;4943406;28;20097;-85
2022/06/29 03:33:03;;;;;;;8.30;7.50;;;15.10;99.90;;;;;;4934138;28;20313;-85
2022/06/29 03:35:29;;;;;;;9.23;7.22;;;15.10;99.90;;;;;;4940451;28;20050;-85
2022/06/29 03:37:55;;;;;;;8.60;7.53;;;15.10;99.90;;;;;;4942781;28;20047;-85
2022/06/29 03:40:21;;;;;;;8.85;7.85;;;15.10;99.90;;;;;;4942108;28;20515;-85
2022/06/29 03:42:46;;;;;;;8.68;7.50;;;15.00;99.90;;;;;;4964866;28;20114;-85
2022/06/29 03:45:12;;;;;;;9.40;7.53;;;15.00;99.90;;;;;;4943553;28;20070;-86
2022/06/29 03:47:39;;;;;;;7.45;6.68;;;15.00;99.90;;;;;;4942508;28;20053;-85
2022/06/29 03:50:07;;;;;;;9.20;7.88;;;15.10;99.90;;;;;;4940099;28;20462;-85
2022/06/29 03:52:35;;;;;;;8.07;7.20;;;15.00;99.90;;;;;;4957722;28;20396;-85
2022/06/29 03:55:02;;;;;;;8.02;6.68;;;15.00;99.90;;;;;;4939989;28;20468;-85
2022/06/29 03:57:28;;;;;;;8.48;7.57;;;15.00;99.90;;;;;;4950691;28;20054;-85
2022/06/29 03:59:53;;;;;;;8.30;7.20;;;15.00;99.90;;;;;;4958057;28;20560;-85
2022/06/29 04:02:28;;;;;;;9.35;7.05;;;15.00;99.90;;;;;;4939481;28;20449;-85
2022/06/29 04:04:54;;;;;;;8.15;7.32;;;15.10;99.90;;;;;;4953208;28;20108;-85
2022/06/29 04:07:19;;;;;;;8.20;7.35;;;15.10;99.90;;;;;;4943115;28;20053;-85
2022/06/29 04:09:47;;;;;;;8.73;7.90;;;15.10;99.90;;;;;;4941851;28;20046;-85
2022/06/29 04:12:13;;;;;;;8.27;7.45;;;15.00;99.90;;;;;;4940835;28;20035;-85
2022/06/29 04:14:39;;;;;;;8.80;7.93;;;15.00;99.90;;;;;;4941624;28;20093;-84
2022/06/29 04:17:04;;;;;;;9.05;7.38;;;15.00;99.90;;;;;;4950584;28;20122;-85
2022/06/29 04:19:36;;;;;;;8.60;7.80;;;15.10;99.90;;;;;;4940714;28;20035;-86
2022/06/29 04:22:02;;;;;;;8.75;7.72;;;15.10;99.90;;;;;;4973893;28;22185;-85
2022/06/29 04:24:27;;;;;;;11.52;8.80;;;15.20;99.90;;;;;;4958052;28;20062;-85
2022/06/29 04:26:53;;;;;;;8.75;7.85;;;15.20;99.90;;;;;;4941481;28;20039;-85
2022/06/29 04:29:18;;;;;;;9.45;7.60;;;15.20;99.90;;;;;;4938358;28;20134;-85
2022/06/29 04:31:44;;;;;;;10.45;8.48;;;15.30;99.90;;;;;;4951942;28;20045;-85
2022/06/29 04:34:10;;;;;;;9.40;7.70;;;15.40;99.90;;;;;;4956602;28;20451;-85
2022/06/29 04:36:36;;;;;;;9.40;7.63;;;15.50;99.90;;;;;;4957390;28;20090;-86
2022/06/29 04:39:02;;;;;;;9.02;8.13;;;15.50;99.90;;;;;;4940790;28;20043;-85
2022/06/29 04:41:31;;;;;;;8.70;7.80;;;15.60;99.90;;;;;;4946311;28;20222;-86
2022/06/29 04:43:59;;;;;;;9.18;8.10;;;15.50;99.90;;;;;;4941721;28;20035;-86
2022/06/29 04:46:25;;;;;;;9.60;8.43;;;15.60;99.90;;;;;;4940599;28;20062;-85
2022/06/29 04:48:58;;;;;;;8.70;7.80;;;15.70;99.90;;;;;;4956641;28;20056;-85
2022/06/29 04:51:25;;;;;;;9.85;8.85;;;15.80;99.90;;;;;;4935979;28;20074;-85
2022/06/29 04:53:54;;;;;;;8.98;8.18;;;15.80;99.90;;;;;;4942000;28;20101;-86
2022/06/29 04:56:21;;;;;;;9.00;8.10;;;15.90;99.90;;;;;;4941664;28;20050;-86
2022/06/29 04:58:47;;;;;;;11.43;8.35;;;16.00;99.90;;;;;;4957188;28;20411;-86
2022/06/29 05:01:12;;;;;;;9.20;8.30;;;16.10;99.90;;;;;;4957197;28;20538;-85
2022/06/29 05:03:38;;;;;;;9.60;7.75;;;16.10;99.90;;;;;;4957406;28;20675;-85
2022/06/29 05:06:04;;;;;;;8.82;7.93;;;16.10;99.90;;;;;;4940489;28;20061;-85
2022/06/29 05:08:30;;;;;;;8.80;8.00;;;16.20;99.90;;;;;;4940139;28;20130;-85
2022/06/29 05:10:55;;;;;;;9.80;8.05;;;16.30;99.90;;;;;;4940116;28;20035;-85
2022/06/29 05:13:24;;;;;;;10.93;8.05;;;16.30;99.90;;;;;;4937150;28;20046;-86
2022/06/29 05:15:50;;;;;;;9.23;8.23;;;16.40;99.90;;;;;;4954411;28;20444;-86
2022/06/29 05:18:15;;;;;;;9.35;7.90;;;16.60;99.90;;;;;;4948553;28;20122;-86
2022/06/29 05:20:42;;;;;;;8.68;7.82;;;16.60;99.90;;;;;;4941475;28;20360;-86
2022/06/29 05:23:09;;;;;;;9.48;8.40;;;16.70;99.90;;;;;;4957651;28;20046;-85
2022/06/29 05:25:35;;;;;;;9.02;8.13;;;16.70;99.90;;;;;;4943386;28;20050;-86
2022/06/29 05:28:01;;;;;;;9.05;8.10;;;16.80;99.90;;;;;;4941771;28;20046;-86
2022/06/29 05:30:27;;;;;;;10.07;7.72;;;16.80;99.90;;;;;;4960582;28;20031;-86
2022/06/29 05:32:53;;;;;;;8.77;7.97;;;17.00;99.90;;;;;;4942760;28;20380;-86
2022/06/29 05:35:19;;;;;;;8.55;7.72;;;17.00;99.90;;;;;;4944866;28;20035;-86
2022/06/29 05:37:44;;;;;;;8.25;7.45;;;17.20;99.90;;;;;;4944855;28;20126;-86
2022/06/29 05:40:10;;;;;;;9.75;7.47;;;17.30;99.90;;;;;;4943686;28;20479;-86
2022/06/29 05:42:36;;;;;;;10.32;7.80;;;17.40;99.90;;;;;;4941288;28;21295;-86
2022/06/29 05:45:02;;;;;;;8.40;7.30;;;17.50;99.90;;;;;;4959458;28;20424;-86
2022/06/29 05:47:31;;;;;;;8.07;7.25;;;17.70;99.90;;;;;;4945142;28;20038;-86
2022/06/29 05:49:57;;;;;;;9.13;7.10;;;17.50;99.90;;;;;;4945382;28;20054;-86
2022/06/29 05:52:24;;;;;;;8.55;7.10;;;17.80;99.90;;;;;;4959495;28;20042;-86
2022/06/29 05:54:52;;;;;;;7.55;6.53;;;17.90;99.90;;;;;;4943384;28;20153;-86
2022/06/29 05:57:19;;;;;;;7.28;6.55;;;17.90;99.90;;;;;;4958730;28;20108;-86
2022/06/29 05:59:48;;;;;;;9.88;7.40;;;17.80;99.90;;;;;;4941900;28;20047;-85
2022/06/29 06:02:14;;;;;;;7.95;6.88;;;18.00;99.90;;;;;;4957406;28;20466;-85
2022/06/29 06:04:40;;;;;;;7.45;6.75;;;18.20;99.90;;;;;;4942705;28;20039;-84
2022/06/29 06:07:06;;;;;;;9.63;6.40;;;18.20;99.90;;;;;;4942097;28;20169;-84
2022/06/29 06:09:32;;;;;;;8.63;7.05;;;18.20;99.90;;;;;;4945025;28;20556;-84
2022/06/29 06:11:58;;;;;;;6.70;6.10;;;18.40;99.90;;;;;;4937175;28;20682;-85
2022/06/29 06:14:24;;;;;;;7.35;6.57;;;18.40;92.50;;;;;;4944880;28;20179;-84
2022/06/29 06:16:53;;;;;;;6.50;5.90;;;18.60;90.40;;;;;;4942722;28;20051;-84
2022/06/29 06:19:21;;;;;;;7.93;5.88;;;18.60;58.80;;;;;;4945617;28;20039;-85
2022/06/29 06:21:47;;;;;;;7.28;6.57;;;18.70;80.20;;;;;;4958984;28;20035;-84
2022/06/29 06:24:13;;;;;;;7.35;5.93;;;18.70;68.50;;;;;;4941571;28;20047;-85
2022/06/29 06:26:44;;;;;;;7.00;5.60;;;18.80;26.10;;;;;;4942412;28;20070;-84
2022/06/29 06:29:10;;;;;;;6.28;5.68;;;19.00;28.30;;;;;;4946237;28;20138;-84
2022/06/29 06:31:36;;;;;;;7.97;5.90;;;19.00;31.00;;;;;;4950912;28;20130;-85
2022/06/29 06:34:02;;;;;;;8.23;5.80;;;19.20;20.40;;;;;;4944715;28;20058;-85
2022/06/29 06:36:28;;;;;;;6.80;5.47;;;19.30;21.80;;;;;;4943696;28;20490;-84
2022/06/29 06:38:53;;;;;;;6.70;5.10;;;19.40;9.10;;;;;;4942703;28;20070;-84
2022/06/29 06:41:22;;;;;;;7.75;5.25;;;19.70;23.80;;;;;;4943673;28;20428;-85
2022/06/29 06:43:52;;;;;;;5.15;4.20;;;19.50;1.00;;;;;;4958057;28;20043;-84
2022/06/29 06:46:22;;;;;;;4.65;4.25;;;19.80;1.00;;;;;;4943389;28;20035;-84
2022/06/29 06:48:52;;;;;;;5.32;3.90;;;19.90;1.00;;;;;;4943541;28;20042;-84
2022/06/29 06:51:22;;;;;;;5.00;4.15;;;19.90;1.00;;;;;;4959450;28;20294;-84
2022/06/29 06:53:49;;;;;;;6.15;3.92;;;20.00;1.00;;;;;;4959249;28;20113;-84
2022/06/29 06:56:15;;;;;;;8.98;4.32;;;20.10;1.00;;;;;;4956073;28;20129;-84
2022/06/29 06:58:41;;;;;;;4.63;3.42;;;20.20;1.00;;;;;;4959226;28;20082;-85
2022/06/29 07:01:09;;;;;;;6.35;3.38;;;20.40;1.00;;;;;;4944260;28;20085;-84
2022/06/29 07:03:36;;;;;;;5.10;3.75;;;20.30;1.00;;;;;;4932812;28;20653;-84
2022/06/29 07:06:07;;;;;;;6.40;3.33;;;20.50;1.00;;;;;;4942815;28;20085;-84
2022/06/29 07:08:38;;;;;;;4.38;3.22;;;20.70;1.00;;;;;;4958734;28;20046;-84
2022/06/29 07:11:07;;;;;;;3.95;3.30;;;20.80;1.00;;;;;;4957814;28;20035;-84
2022/06/29 07:13:33;;;;;;;5.43;2.97;;;21.00;1.00;;;;;;4941975;28;20046;-85
2022/06/29 07:16:04;;;;;;;3.58;2.50;;;21.10;1.00;;;;;;4942207;28;20039;-84
2022/06/29 07:18:30;;;;;;;3.72;2.67;;;21.10;1.00;;;;;;4957377;28;21025;-84
2022/06/29 07:20:56;;;;;;;3.30;2.90;;;21.20;1.00;;;;;;4958602;28;20034;-84
2022/06/29 07:23:22;;;;;;;3.70;2.60;;;21.10;99.90;;;;;;4940859;28;20121;-85
2022/06/29 07:25:48;;;;;;;3.10;2.53;;;21.00;99.90;;;;;;4942626;28;20538;-84
2022/06/29 07:28:13;;;;;;;3.15;2.53;;;21.30;1.00;;;;;;4939498;28;20388;-84
2022/06/29 07:30:39;;;;;;;3.60;2.80;;;21.40;99.90;;;;;;4959030;28;20038;-85
2022/06/29 07:33:11;;;;;;;3.25;2.60;;;21.50;1.00;;;;;;4934639;28;20042;-84
2022/06/29 07:35:37;;;;;;;3.45;2.53;;;21.60;1.00;;;;;;4941285;28;20130;-85
2022/06/29 07:38:03;;;;;;;3.53;2.53;;;21.70;99.90;;;;;;4942567;28;20126;-85
2022/06/29 07:40:29;;;;;;;5.55;2.53;;;21.60;1.00;;;;;;4942545;28;20045;-85
2022/06/29 07:42:54;;;;;;;4.13;2.30;;;21.90;1.00;;;;;;4944703;28;20562;-85
2022/06/29 07:45:20;;;;;;;3.72;2.53;;;22.00;1.00;;;;;;4943186;28;20446;-84
2022/06/29 07:47:48;;;;;;;5.75;2.20;;;22.10;99.90;;;;;;4941094;28;20458;-84
2022/06/29 07:50:15;;;;;;;3.75;2.38;;;22.20;99.90;;;;;;4944668;28;20054;-84
2022/06/29 07:52:42;;;;;;;5.10;2.08;;;22.40;99.90;;;;;;4941456;28;20161;-84
2022/06/29 07:55:08;;;;;;;4.63;2.33;;;22.40;99.90;;;;;;4944923;28;20286;-84
2022/06/29 07:57:35;;;;;;;5.88;2.63;;;22.50;99.90;;;;;;4941386;28;20058;-84
2022/06/29 08:00:01;;;;;;;4.05;2.30;;;22.50;99.90;;;;;;4941080;28;20039;-84
2022/06/29 08:02:26;;;;;;;4.25;2.40;;;22.50;99.90;;;;;;4934199;28;20058;-84
2022/06/29 08:04:52;;;;;;;4.88;2.30;;;22.70;99.90;;;;;;4955092;28;20062;-84
2022/06/29 08:07:18;;;;;;;2.17;1.88;;;22.80;99.90;;;;;;4942848;28;20129;-85
2022/06/29 08:09:43;;;;;;;3.53;2.10;;;22.90;99.90;;;;;;4954720;28;20043;-85
2022/06/29 08:12:09;;;;;;;4.60;2.30;;;23.10;99.90;;;;;;4968030;28;20042;-85
2022/06/29 08:14:35;;;;;;;3.00;2.33;;;23.20;99.90;;;;;;4945708;28;20510;-85
2022/06/29 08:17:01;;;;;;;3.58;2.08;;;23.10;99.90;;;;;;4941592;28;20058;-84
2022/06/29 08:19:26;;;;;;;2.55;1.98;;;23.10;99.90;;;;;;4952852;28;20043;-84
2022/06/29 08:21:52;;;;;;;3.50;2.42;;;23.10;99.90;;;;;;4942628;28;20525;-85
2022/06/29 08:24:21;;;;;;;6.70;2.10;;;22.90;99.90;;;;;;4941552;28;20050;-84
2022/06/29 08:26:46;;;;;;;3.92;2.10;;;23.00;99.90;;;;;;4941676;28;20046;-84
2022/06/29 08:29:12;;;;;;;2.38;1.73;;;23.00;99.90;;;;;;4937630;28;20038;-84
2022/06/29 08:31:38;;;;;;;2.63;2.10;;;23.50;99.90;;;;;;4937491;28;20403;-84
2022/06/29 08:34:06;;;;;;;2.67;1.88;;;23.50;99.90;;;;;;4941487;28;20046;-84
2022/06/29 08:36:35;;;;;;;2.83;2.13;;;23.70;99.90;;;;;;4943185;28;20191;-84
2022/06/29 08:39:01;;;;;;;2.75;1.90;;;24.10;99.90;;;;;;4958314;28;20043;-84
2022/06/29 08:41:30;;;;;;;5.32;2.10;;;24.30;99.90;;;;;;4955494;28;20438;-84
2022/06/29 08:44:03;;;;;;;4.80;2.28;;;24.70;99.90;;;;;;4941429;28;20479;-85
2022/06/29 08:46:28;;;;;;;4.03;2.00;;;24.90;99.90;;;;;;4940746;28;20050;-85
2022/06/29 08:48:56;;;;;;;4.28;1.90;;;25.20;99.90;;;;;;4933501;28;20392;-84
2022/06/29 08:51:23;;;;;;;4.38;2.03;;;24.90;99.90;;;;;;4942148;28;20430;-84
2022/06/29 08:53:50;;;;;;;3.13;2.13;;;25.10;99.90;;;;;;4936443;28;20459;-85
2022/06/29 08:56:19;;;;;;;2.95;1.92;;;25.30;99.90;;;;;;4952910;28;20566;-85
2022/06/29 08:58:49;;;;;;;2.95;2.03;;;25.80;99.90;;;;;;4939980;28;20376;-84
2022/06/29 09:01:15;;;;;;;3.65;2.22;;;26.20;99.90;;;;;;4936738;28;20542;-85
2022/06/29 09:03:41;;;;;;;7.25;2.00;;;26.10;99.90;;;;;;4940781;28;20340;-85
2022/06/29 09:06:08;;;;;;;4.65;2.33;;;26.20;99.90;;;;;;4972866;28;20189;-84
2022/06/29 09:08:34;;;;;;;3.50;1.90;;;26.10;99.90;;;;;;4953534;28;20049;-84
2022/06/29 09:11:28;;;;;;;2.75;1.83;;;26.00;99.90;;;;;;4942401;28;20047;-84
2022/06/29 09:14:13;;;;;;;1.98;1.80;;;26.00;99.90;;;;;;4939982;28;20040;-85
2022/06/29 09:16:59;;;;;;;4.65;1.70;;;25.90;99.90;;;;;;4939981;28;20361;-85
2022/06/29 09:19:36;;;;;;;4.18;1.80;;;25.80;99.90;;;;;;4938429;28;20050;-84
2022/06/29 09:22:05;;;;;;;3.42;1.95;;;26.00;99.90;;;;;;4957049;28;20491;-84
2022/06/29 09:24:35;;;;;;;3.40;2.03;;;25.40;99.90;;;;;;4933868;28;20499;-84
2022/06/29 09:27:04;;;;;;;2.97;1.85;;;25.40;99.90;;;;;;4941080;28;20042;-84
2022/06/29 09:29:35;;;;;;;3.47;2.10;;;25.60;99.90;;;;;;4947015;28;20400;-85
2022/06/29 09:32:04;;;;;;;6.25;2.10;;;25.90;99.90;;;;;;4953850;28;20114;-85
2022/06/29 09:34:54;;;;;;;4.13;2.00;;;25.90;99.90;;;;;;4936006;28;20061;-85
2022/06/29 09:37:24;;;;;;;6.75;2.20;;;26.10;99.90;;;;;;4941110;28;20038;-84
2022/06/29 09:39:56;;;;;;;2.08;1.70;;;25.80;99.90;;;;;;4938615;28;20051;-85
2022/06/29 09:42:27;;;;;;;3.40;2.00;;;26.20;99.90;;;;;;4953734;28;20043;-84
2022/06/29 09:44:55;;;;;;;2.83;1.92;;;26.30;99.90;;;;;;4939903;28;20036;-84
2022/06/29 09:47:22;;;;;;;2.80;1.95;;;26.50;99.90;;;;;;4950930;28;20077;-84
2022/06/29 09:49:53;;;;;;;4.38;1.88;;;26.70;99.90;;;;;;4950194;28;20050;-85
2022/06/29 09:52:20;;;;;;;5.25;1.90;;;26.60;99.90;;;;;;4941600;28;20049;-85
2022/06/29 09:54:51;;;;;;;3.40;1.67;;;26.40;99.90;;;;;;4938174;28;20323;-85
2022/06/29 09:57:19;;;;;;;3.65;2.03;;;26.60;99.90;;;;;;4955692;28;20038;-85
2022/06/29 10:02:44;;;;;;;4.57;2.17;;;26.80;99.90;;;;;;4949359;28;20497;-84
2022/06/29 10:05:12;;;;;;;2.80;2.10;;;26.90;99.90;;;;;;4937487;28;20137;-85
2022/06/29 10:07:48;;;;;;;2.40;2.00;;;26.70;99.90;;;;;;4955131;28;20386;-85
2022/06/29 10:10:19;;;;;;;3.97;2.25;;;26.50;99.90;;;;;;4950489;28;20313;-85
2022/06/29 10:16:30;;;;;;;4.28;2.50;;;26.70;99.90;;;;;;4958134;28;20138;-84
2022/06/29 10:19:31;;;;;;;2.80;2.10;;;27.20;99.90;;;;;;4959760;28;20071;-85
2022/06/29 10:21:57;;;;;;;3.65;2.38;;;26.70;99.90;;;;;;4958656;28;20034;-85
2022/06/29 10:24:25;;;;;;;3.97;2.33;;;26.60;99.90;;;;;;4957374;28;20038;-85
2022/06/29 10:26:54;;;;;;;4.13;2.20;;;26.70;99.90;;;;;;4940721;28;20090;-85
2022/06/29 10:29:19;;;;;;;3.97;2.03;;;26.50;99.90;;;;;;4942429;28;20030;-85
2022/06/29 10:31:51;;;;;;;3.38;2.13;;;26.50;99.90;;;;;;4957061;28;20264;-85
2022/06/29 10:34:40;;;;;;;5.22;2.22;;;26.60;99.90;;;;;;4933528;28;20070;-85
2022/06/29 10:37:14;;;;;;;2.88;2.17;;;26.40;99.90;;;;;;4953263;28;20047;-85
2022/06/29 10:39:49;;;;;;;3.55;2.00;;;26.20;99.90;;;;;;4937603;28;20085;-85
2022/06/29 10:45:18;;;;;;;4.20;2.05;;;26.20;99.90;;;;;;4959492;28;20039;-85
2022/06/29 10:47:56;;;;;;;3.03;2.00;;;26.20;99.90;;;;;;4940279;28;20279;-85
2022/06/29 10:50:30;;;;;;;2.72;1.90;;;27.30;99.90;;;;;;4956111;28;20141;-85
2022/06/29 10:53:06;;;;;;;2.05;1.83;;;27.90;99.90;;;;;;4941540;28;20053;-85
2022/06/29 10:55:34;;;;;;;2.70;1.80;;;28.10;99.90;;;;;;4966355;28;20070;-85
2022/06/29 10:58:02;;;;;;;2.25;2.00;;;28.00;99.90;;;;;;4939005;28;20388;-85
2022/06/29 11:00:30;;;;;;;1.95;1.65;;;27.40;99.90;;;;;;4957419;28;20106;-85
2022/06/29 11:02:56;;;;;;;3.28;2.00;;;27.50;99.90;;;;;;4958343;28;20138;-85
2022/06/29 11:05:23;;;;;;;4.28;2.10;;;27.70;99.90;;;;;;4940609;28;20035;-85
2022/06/29 11:13:29;;;;;;;4.07;1.98;;;28.30;99.90;;;;;;4956575;28;20170;-86
2022/06/29 11:16:00;;;;;;;3.47;2.00;;;28.50;99.90;;;;;;4952436;28;20050;-85
2022/06/29 11:18:31;;;;;;;4.47;2.00;;;27.90;99.90;;;;;;4952829;28;20038;-85
2022/06/29 11:21:02;;;;;;;3.17;1.83;;;27.90;99.90;;;;;;4956985;28;20054;-85
2022/06/29 11:23:30;;;;;;;2.78;1.90;;;28.40;99.90;;;;;;4952966;28;20518;-85
2022/06/29 11:25:56;;;;;;;3.35;2.00;;;28.70;99.90;;;;;;4940928;28;20050;-85
2022/06/29 11:28:25;;;;;;;2.88;1.70;;;28.70;99.90;;;;;;4938423;28;20235;-85
2022/06/29 11:31:07;;;;;;;2.65;1.70;;;28.80;99.90;;;;;;4973046;28;20137;-85
2022/06/29 11:33:36;;;;;;;2.25;1.63;;;28.50;99.90;;;;;;4948564;28;20150;-85
2022/06/29 11:36:06;;;;;;;4.97;1.73;;;28.90;99.90;;;;;;4941280;28;20072;-85
2022/06/29 11:38:36;;;;;;;2.95;1.60;;;29.20;99.90;;;;;;4945425;28;20071;-85
2022/06/29 11:41:13;;;;;;;2.78;1.90;;;28.90;99.90;;;;;;4973473;28;20435;-85
2022/06/29 11:43:38;;;;;;;3.28;1.50;;;29.10;99.90;;;;;;4942273;28;20282;-85
2022/06/29 11:46:04;;;;;;;2.38;2.00;;;29.30;99.90;;;;;;4943956;28;20487;-85
2022/06/29 11:48:31;;;;;;;3.40;2.05;;;29.10;99.90;;;;;;4938173;28;20043;-85
2022/06/29 11:51:10;;;;;;;2.53;1.92;;;29.60;99.90;;;;;;4942881;28;20048;-86
2022/06/29 11:53:43;;;;;;;2.55;1.80;;;29.60;99.90;;;;;;4946521;28;21102;-86
2022/06/29 11:56:14;;;;;;;3.10;1.92;;;29.70;99.90;;;;;;4934722;28;20131;-85
2022/06/29 11:58:49;;;;;;;3.33;1.90;;;29.40;99.90;;;;;;4918148;29;20122;-86
2022/06/29 12:01:20;;;;;;;3.55;2.10;;;29.50;99.90;;;;;;4919562;29;20134;-85
2022/06/29 12:03:53;;;;;;;3.55;1.80;;;29.10;99.90;;;;;;4905258;29;20044;-86
2022/06/29 12:06:22;;;;;;;3.72;1.80;;;29.60;99.90;;;;;;4920332;29;20158;-86
2022/06/29 12:08:49;;;;;;;4.32;2.38;;;29.70;99.90;;;;;;4904908;29;20070;-86
2022/06/29 12:11:18;;;;;;;2.80;1.95;;;29.90;99.90;;;;;;4899146;29;20059;-85
2022/06/29 12:13:44;;;;;;;2.42;1.80;;;29.80;99.90;;;;;;4892888;29;20048;-85
2022/06/29 12:16:11;;;;;;;4.05;2.30;;;29.70;99.90;;;;;;4892810;29;20054;-86
2022/06/29 12:18:37;;;;;;;4.47;2.35;;;30.10;99.90;;;;;;4892435;29;20743;-85
2022/06/29 12:21:03;;;;;;;2.45;2.25;;;30.10;99.90;;;;;;4900654;29;20043;-86
2022/06/29 12:23:29;;;;;;;4.25;2.10;;;30.00;99.90;;;;;;4898168;29;20704;-85
2022/06/29 12:25:55;;;;;;;3.30;2.55;;;30.40;99.90;;;;;;4903442;29;20044;-86
2022/06/29 12:28:21;;;;;;;4.28;2.60;;;30.20;99.90;;;;;;4904907;29;20043;-86
2022/06/29 12:30:47;;;;;;;5.10;2.60;;;30.30;99.90;;;;;;4921417;29;20055;-86
2022/06/29 12:33:17;;;;;;;3.53;2.55;;;30.50;99.90;;;;;;4899727;29;20513;-86
2022/06/29 12:35:43;;;;;;;5.35;2.50;;;30.40;99.90;;;;;;4906437;29;20040;-85
2022/06/29 12:38:09;;;;;;;2.53;2.33;;;30.20;99.90;;;;;;4920515;29;20649;-86
2022/06/29 12:40:38;;;;;;;2.80;2.60;;;30.00;99.90;;;;;;4908315;29;20145;-86
2022/06/29 12:43:05;;;;;;;3.05;2.75;;;30.20;99.90;;;;;;4907131;29;20039;-85
2022/06/29 12:45:31;;;;;;;7.15;3.05;;;30.60;99.90;;;;;;4908232;29;20038;-86
2022/06/29 12:47:57;;;;;;;3.25;2.90;;;30.70;99.90;;;;;;4907799;29;20044;-86
2022/06/29 12:50:24;;;;;;;3.13;2.65;;;30.20;99.90;;;;;;4908214;29;20039;-86
2022/06/29 12:52:53;;;;;;;3.03;2.83;;;30.40;99.90;;;;;;4921532;29;20044;-85
2022/06/29 12:55:20;;;;;;;4.53;3.10;;;30.50;99.90;;;;;;4932766;28;20593;-87
2022/06/29 12:57:47;;;;;;;3.17;2.88;;;30.30;99.90;;;;;;4943569;28;20073;-86
2022/06/29 13:00:15;;;;;;;3.47;3.00;;;30.20;99.90;;;;;;4946679;28;20101;-86
2022/06/29 13:02:44;;;;;;;4.00;3.22;;;30.20;99.90;;;;;;4960461;28;20122;-86
2022/06/29 13:05:10;;;;;;;4.18;3.45;;;30.20;99.90;;;;;;4972110;28;20061;-86
2022/06/29 13:07:37;;;;;;;3.63;3.33;;;30.50;99.90;;;;;;4959763;28;20035;-86
2022/06/29 13:10:05;;;;;;;3.78;3.35;;;31.10;99.90;;;;;;4945067;28;20554;-86
2022/06/29 13:12:31;;;;;;;4.55;3.63;;;31.50;99.90;;;;;;4944495;28;20122;-86